Zielona Góra, Polska

05:33 CEST dnia 30-maj-2017 (GMT +0200)
Stacja Meteo, Wolsztyn | | Change Station

Wysokość 0 ft 52.12 °N, 16.11 °E | Updated 8 minutes ago

pogodnie
pogodnie
64.0 ° F
Odczuwalna 64.0 ° F
Płn.
2.0
Wiatr zmienny Wiatr od wschodni
Gusts 5.0 mph

Dziś
Wysoka -- | Niska -- ° F
--% Prawdop. opadów
Wczoraj
Wysoka -- | Niska -- ° F
Precip. -- cali
Ciśnienie 29.89 cali
Widzialność -9999.0 mil
chmury
Punkt rosy 55 ° F
Wilgotność 72%
Opady deszczu 0.00 cali
grubość pokrywy śnieżnej Niedostępne.
4:42 AM 9:03 PM
Powiększający się sierp Księżyca, 25% visible
METAR EPPO 300330Z 08002KT CAVOK 14/13 Q1012
Ciśnienie 29.89 cali
Widzialność -9999.0 mil
chmury
Punkt rosy 55 ° F
Wilgotność 72%
Opady deszczu 0.00 cali
grubość pokrywy śnieżnej Niedostępne.
4:42 AM 9:03 PM
Powiększający się sierp Księżyca, 25% visible
METAR EPPO 300330Z 08002KT CAVOK 14/13 Q1012

Get Severe Weather Alerts

Thanks for signing up!

Be on the lookout for a verification email in your inbox.

You'll start receiving the daily forecast at 6 AM.

×

10-Day Weather Forecast

×

Almanac

Astronomia

May. 30, 2017 Wschód Zachów
Aktualny czas
Zmierzch cywilny
Zmierzch żeglarski
świt/zmierzch astronomiczny
Księżyc
całkowite oświetlenie
Długość dnia
Tomorrow will be .
, % of the Moon is Illuminated

Dzisiejsze ekstrema

Country Highs Country Lows

Community

WunderPhotos

Category 6

Welcome to Category 6. This is the collective home for Weather Underground's featured writeups by Dr. Jeff Masters (right), Bob Henson (left), Chris Burt, and other regular contributors.

Nearby

Jakość powietrza

  Jakość powietrza czynnik AQ Zanieczyszczenie
Not available.

Głębokość pokrywy śnieżnej

Station Depth n.p.m.

Aktywność sejsmiczna

Miejscowość Distance Mag. Time & Date
Minimum magnitude displayed is 2.5.

Temperatury wody na wybrzeżu

Miejsce Temperatura

Stations

Najbliższa stacja pogodowa

Lokalizacja stacji Temp. czynnik chłodzący wiatru Punkt rosy Wilgotność Wiatr Precip. Wysokość Uaktualniono Typ